Terminal Aerodrome Forecast
Issued by NWS

Home | Current Version | Previous Version | Text Only | Print | Product List | Glossary On
Versions: 1 2 3 4 5 6 7 8 9 10 11 12 13 14 15 16
579
FTUS43 KIND 230815 AAA
TAFHUF
TAF AMD
KHUF 230815Z 2308/2406 31004KT P6SM FEW050
     FM231600 33008KT P6SM FEW040 FEW250
     FM240100 VRB03KT P6SM FEW250=

USA.gov is the U.S. government's official web portal to all federal, state and local government web resources and services.